createdAt,value
2023-05-09T00:00:38.656Z,57.95
2023-05-09T00:03:15.574Z,57.28
2023-05-09T00:05:47.121Z,58.10
2023-05-09T00:08:16.486Z,58.32
2023-05-09T00:10:45.381Z,58.08
2023-05-09T00:13:14.714Z,57.86
2023-05-09T00:15:43.756Z,58.40
2023-05-09T00:18:14.610Z,57.58
2023-05-09T00:20:43.813Z,58.47
2023-05-09T00:23:14.485Z,57.94
2023-05-09T00:25:46.010Z,58.35
2023-05-09T00:28:14.962Z,58.73
2023-05-09T00:30:43.981Z,58.89
2023-05-09T00:33:14.828Z,58.40
2023-05-09T00:35:43.827Z,58.83
2023-05-09T00:38:13.543Z,58.79
2023-05-09T00:40:42.409Z,58.25
2023-05-09T00:43:14.088Z,58.97
2023-05-09T00:45:43.419Z,58.34
2023-05-09T00:48:16.034Z,58.57
2023-05-09T00:50:52.328Z,59.33
2023-05-09T00:53:21.486Z,58.54
2023-05-09T00:55:50.602Z,58.90
2023-05-09T00:58:19.703Z,58.67
2023-05-09T01:00:48.650Z,58.71
2023-05-09T01:03:18.542Z,59.44
2023-05-09T01:05:55.936Z,59.55
2023-05-09T01:08:37.755Z,59.04
2023-05-09T01:11:15.302Z,59.47
2023-05-09T01:13:57.831Z,58.96
2023-05-09T01:16:35.239Z,59.87
2023-05-09T01:19:22.194Z,59.25
2023-05-09T01:21:52.781Z,59.15
2023-05-09T01:24:44.959Z,59.53
2023-05-09T01:27:28.747Z,59.76
2023-05-09T01:29:59.645Z,59.74
2023-05-09T01:32:33.914Z,59.50
2023-05-09T01:35:05.778Z,59.78
2023-05-09T01:37:39.832Z,59.91
2023-05-09T01:40:14.270Z,60.51
2023-05-09T01:42:47.633Z,60.18
2023-05-09T01:45:18.379Z,59.97
2023-05-09T01:47:50.092Z,59.96
2023-05-09T01:50:21.952Z,60.80
2023-05-09T01:52:56.174Z,60.74
2023-05-09T01:55:26.825Z,60.39
2023-05-09T01:57:58.534Z,60.24
2023-05-09T02:00:28.632Z,59.89
2023-05-09T02:02:58.791Z,60.62
2023-05-09T02:05:31.118Z,60.79
2023-05-09T02:08:03.401Z,60.74
2023-05-09T02:10:37.501Z,61.13
2023-05-09T02:13:08.919Z,61.35
2023-05-09T02:15:39.943Z,60.72
2023-05-09T02:18:08.919Z,60.62
2023-05-09T02:20:39.372Z,60.42
2023-05-09T02:23:08.680Z,60.76
2023-05-09T02:25:38.815Z,60.96
2023-05-09T02:28:08.652Z,61.20
2023-05-09T02:30:44.304Z,60.74
2023-05-09T02:33:15.506Z,60.80
2023-05-09T02:35:49.064Z,60.82
2023-05-09T02:38:18.656Z,61.73
2023-05-09T02:40:50.984Z,61.45
2023-05-09T02:43:23.504Z,61.24
2023-05-09T02:45:52.423Z,61.23
2023-05-09T02:48:21.332Z,62.11
2023-05-09T02:50:50.346Z,61.86
2023-05-09T02:53:19.265Z,61.82
2023-05-09T02:55:50.034Z,61.33
2023-05-09T02:58:19.422Z,61.46
2023-05-09T03:00:48.256Z,61.71
2023-05-09T03:03:18.785Z,61.51
2023-05-09T03:05:50.859Z,62.24
2023-05-09T03:08:19.797Z,62.11
2023-05-09T03:10:48.624Z,61.70
2023-05-09T03:13:18.216Z,61.81
2023-05-09T03:15:47.049Z,61.96
2023-05-09T03:18:16.017Z,62.20
2023-05-09T03:20:45.086Z,62.31
2023-05-09T03:23:14.489Z,62.41
2023-05-09T03:25:43.420Z,61.84
2023-05-09T03:28:17.944Z,62.22
2023-05-09T03:30:46.773Z,62.52
2023-05-09T03:33:19.864Z,62.16
2023-05-09T03:35:48.730Z,62.35
2023-05-09T03:38:18.341Z,62.23
2023-05-09T03:40:47.393Z,62.56
2023-05-09T03:43:19.434Z,62.55
2023-05-09T03:45:49.344Z,62.99
2023-05-09T03:48:19.292Z,62.79
2023-05-09T03:50:51.936Z,62.91
2023-05-09T03:53:21.149Z,62.67
2023-05-09T03:55:50.232Z,63.02
2023-05-09T03:58:19.163Z,63.54
2023-05-09T04:00:52.159Z,62.92
2023-05-09T04:03:23.301Z,64.00
2023-05-09T04:05:54.623Z,63.91
2023-05-09T04:08:38.712Z,63.90
2023-05-09T04:11:08.189Z,62.90
2023-05-09T04:13:39.298Z,63.07
2023-05-09T04:16:16.457Z,62.65
2023-05-09T04:18:46.041Z,61.86
2023-05-09T04:21:16.637Z,61.44
2023-05-09T04:23:48.491Z,60.09
2023-05-09T04:26:17.903Z,58.78
2023-05-09T04:28:48.605Z,57.80
2023-05-09T04:31:18.868Z,57.52
2023-05-09T04:33:51.427Z,55.97
2023-05-09T04:36:20.643Z,54.12
2023-05-09T04:38:49.785Z,54.46
2023-05-09T04:41:22.547Z,52.74
2023-05-09T04:43:51.950Z,52.82
2023-05-09T04:46:25.654Z,51.28
2023-05-09T04:48:56.138Z,50.39
2023-05-09T04:51:25.582Z,50.12
2023-05-09T04:53:57.518Z,48.94
2023-05-09T04:56:31.218Z,47.96
2023-05-09T04:59:03.098Z,46.49
2023-05-09T05:01:35.238Z,44.22
2023-05-09T05:04:05.395Z,43.25
2023-05-09T05:06:36.392Z,42.29
2023-05-09T05:09:07.087Z,41.61
2023-05-09T05:11:41.660Z,40.89
2023-05-09T05:14:16.210Z,39.80
2023-05-09T05:16:46.206Z,37.91
2023-05-09T05:19:15.149Z,37.42
2023-05-09T05:21:44.240Z,35.90
2023-05-09T05:24:13.376Z,35.57
2023-05-09T05:26:44.078Z,35.40
2023-05-09T05:29:13.982Z,34.36
2023-05-09T05:31:49.322Z,34.31
2023-05-09T05:34:18.750Z,34.42
2023-05-09T05:36:48.525Z,33.87
2023-05-09T05:39:18.762Z,33.80
2023-05-09T05:41:48.886Z,32.97
2023-05-09T05:44:21.771Z,32.44
2023-05-09T05:46:51.983Z,31.27
2023-05-09T05:49:21.658Z,30.65
2023-05-09T05:51:51.308Z,30.22
2023-05-09T05:54:21.478Z,30.48
2023-05-09T05:56:50.677Z,30.43
2023-05-09T05:59:19.671Z,30.83
2023-05-09T06:01:49.291Z,30.02
2023-05-09T06:04:18.320Z,30.22
2023-05-09T06:06:47.598Z,30.46
2023-05-09T06:09:16.576Z,31.24
2023-05-09T06:11:45.504Z,31.00
2023-05-09T06:14:14.559Z,30.70
2023-05-09T06:16:44.736Z,30.77
2023-05-09T06:19:14.084Z,30.82
2023-05-09T06:21:43.628Z,30.77
2023-05-09T06:24:23.485Z,31.30
2023-05-09T06:27:06.861Z,31.58
2023-05-09T06:29:36.941Z,31.91
2023-05-09T06:32:06.694Z,32.65
2023-05-09T06:34:38.872Z,32.64
2023-05-09T06:37:07.872Z,32.78
2023-05-09T06:39:37.641Z,33.17
2023-05-09T06:42:07.618Z,33.92
2023-05-09T06:44:39.751Z,34.17
2023-05-09T06:47:08.868Z,34.36
2023-05-09T06:49:37.760Z,34.03
2023-05-09T06:52:06.751Z,34.52
2023-05-09T06:54:36.166Z,33.86
2023-05-09T06:57:05.114Z,34.11
2023-05-09T06:59:36.201Z,34.25
2023-05-09T07:02:05.211Z,34.99
2023-05-09T07:04:36.054Z,34.77
2023-05-09T07:07:05.620Z,34.96
2023-05-09T07:09:36.420Z,34.20
2023-05-09T07:12:06.387Z,34.55
2023-05-09T07:14:37.068Z,34.51
2023-05-09T07:17:21.998Z,34.30
2023-05-09T07:19:52.934Z,33.83
2023-05-09T07:22:21.958Z,33.77
2023-05-09T07:24:50.906Z,33.80
2023-05-09T07:27:19.900Z,34.07
2023-05-09T07:29:51.691Z,34.22
2023-05-09T07:32:20.702Z,33.82
2023-05-09T07:34:49.855Z,34.28
2023-05-09T07:37:18.710Z,33.85
2023-05-09T07:39:47.649Z,33.68
2023-05-09T07:42:16.759Z,34.36
2023-05-09T07:44:46.664Z,33.98
2023-05-09T07:47:15.556Z,34.13
2023-05-09T07:49:45.961Z,34.11
2023-05-09T07:52:16.795Z,33.80
2023-05-09T07:54:46.114Z,34.55
2023-05-09T07:57:15.627Z,34.66
2023-05-09T07:59:44.631Z,34.54
2023-05-09T08:02:13.512Z,33.85
2023-05-09T08:04:42.455Z,34.51
2023-05-09T08:07:11.415Z,34.26
2023-05-09T08:09:40.274Z,34.37
2023-05-09T08:12:09.705Z,34.18
2023-05-09T08:14:39.217Z,33.59
2023-05-09T08:17:08.296Z,33.63
2023-05-09T08:19:37.208Z,33.96
2023-05-09T08:22:06.050Z,33.19
2023-05-09T08:24:37.437Z,33.60
2023-05-09T08:27:06.247Z,33.28
2023-05-09T08:29:35.544Z,33.60
2023-05-09T08:32:04.896Z,33.12
2023-05-09T08:34:35.069Z,33.20
2023-05-09T08:37:05.061Z,33.38
2023-05-09T08:39:36.280Z,32.72
2023-05-09T08:42:06.831Z,33.18
2023-05-09T08:44:37.154Z,33.13
2023-05-09T08:47:06.432Z,32.88
2023-05-09T08:49:37.817Z,33.20
2023-05-09T08:52:07.396Z,32.64
2023-05-09T08:54:36.895Z,32.07
2023-05-09T08:57:06.567Z,32.16
2023-05-09T08:59:38.109Z,31.85
2023-05-09T09:02:07.973Z,31.37
2023-05-09T09:04:36.913Z,31.40
2023-05-09T09:07:07.647Z,31.36
2023-05-09T09:09:45.336Z,31.36
2023-05-09T09:12:16.144Z,31.32
2023-05-09T09:14:48.337Z,31.02
2023-05-09T09:17:20.101Z,30.56
2023-05-09T09:19:53.758Z,30.14
2023-05-09T09:22:22.582Z,29.54
2023-05-09T09:24:51.508Z,29.54
2023-05-09T09:27:21.508Z,29.88
2023-05-09T09:29:50.312Z,29.77
2023-05-09T09:32:19.463Z,29.60
2023-05-09T09:34:50.235Z,29.24
2023-05-09T09:37:23.474Z,29.50
2023-05-09T09:39:56.306Z,29.43
2023-05-09T09:42:25.354Z,29.13
2023-05-09T09:45:02.700Z,29.43
2023-05-09T09:47:37.150Z,29.11
2023-05-09T09:50:15.353Z,28.37
2023-05-09T09:52:48.801Z,28.26
2023-05-09T09:55:18.218Z,27.85
2023-05-09T09:57:47.931Z,27.74
2023-05-09T10:00:19.514Z,27.96
2023-05-09T10:02:50.155Z,28.28
2023-05-09T10:05:23.381Z,27.90
2023-05-09T10:07:56.091Z,27.61
2023-05-09T10:10:28.031Z,27.80
2023-05-09T10:12:59.224Z,27.75
2023-05-09T10:15:38.453Z,27.91
2023-05-09T10:18:19.332Z,26.98
2023-05-09T10:20:51.577Z,27.70
2023-05-09T10:23:22.922Z,27.25
2023-05-09T10:25:58.630Z,27.03
2023-05-09T10:28:31.978Z,26.83
2023-05-09T10:31:07.136Z,27.26
2023-05-09T10:33:46.204Z,26.91
2023-05-09T10:36:17.539Z,27.58
2023-05-09T10:38:48.177Z,27.23
2023-05-09T10:41:18.922Z,27.04
2023-05-09T10:43:48.292Z,27.08
2023-05-09T10:46:17.507Z,26.64
2023-05-09T10:48:48.854Z,27.01
2023-05-09T10:51:18.320Z,26.39
2023-05-09T10:53:49.213Z,26.71
2023-05-09T10:56:26.497Z,26.33
2023-05-09T10:58:55.947Z,26.91
2023-05-09T11:01:34.412Z,26.89
2023-05-09T11:04:10.944Z,26.85
2023-05-09T11:06:50.349Z,26.83
2023-05-09T11:09:35.354Z,26.71
2023-05-09T11:12:12.300Z,26.39
2023-05-09T11:14:44.673Z,27.06
2023-05-09T11:17:15.669Z,26.75
2023-05-09T11:20:03.069Z,26.73
2023-05-09T11:22:40.863Z,26.26
2023-05-09T11:25:11.227Z,26.02
2023-05-09T11:27:43.416Z,26.26
2023-05-09T11:30:15.090Z,26.67
2023-05-09T11:32:50.349Z,26.43
2023-05-09T11:35:21.542Z,26.35
2023-05-09T11:37:54.639Z,26.23
2023-05-09T11:40:23.764Z,26.33
2023-05-09T11:42:57.784Z,26.16
2023-05-09T11:45:30.208Z,25.85
2023-05-09T11:48:08.284Z,25.81
2023-05-09T11:50:37.533Z,25.76
2023-05-09T11:53:08.407Z,25.92
2023-05-09T11:55:40.993Z,26.13
2023-05-09T11:58:10.317Z,26.23
2023-05-09T12:00:45.038Z,26.50
2023-05-09T12:03:14.609Z,26.25
2023-05-09T12:05:44.097Z,26.17
2023-05-09T12:08:15.030Z,26.49
2023-05-09T12:10:44.114Z,26.27
2023-05-09T12:13:13.216Z,26.41
2023-05-09T12:15:45.441Z,26.14
2023-05-09T12:18:16.522Z,26.55
2023-05-09T12:20:47.688Z,26.07
2023-05-09T12:23:20.427Z,26.08
2023-05-09T12:25:55.085Z,26.33
2023-05-09T12:28:26.056Z,26.15
2023-05-09T12:30:55.499Z,26.70
2023-05-09T12:33:24.952Z,25.93
2023-05-09T12:36:05.199Z,26.43
2023-05-09T12:38:38.063Z,26.13
2023-05-09T12:41:18.822Z,25.92
2023-05-09T12:43:58.435Z,26.33
2023-05-09T12:46:31.027Z,26.51
2023-05-09T12:49:00.174Z,26.50
2023-05-09T12:51:30.502Z,26.35
2023-05-09T12:54:04.425Z,26.60
2023-05-09T12:56:35.975Z,26.34
2023-05-09T12:59:10.645Z,26.31
2023-05-09T13:01:41.496Z,26.47
2023-05-09T13:04:13.481Z,26.20
2023-05-09T13:06:50.187Z,26.75
2023-05-09T13:09:19.548Z,26.62
2023-05-09T13:11:49.465Z,26.07
2023-05-09T13:14:19.100Z,26.35
2023-05-09T13:16:51.530Z,26.72
2023-05-09T13:19:21.068Z,26.18
2023-05-09T13:21:50.036Z,26.33
2023-05-09T13:24:19.020Z,26.30
2023-05-09T13:26:48.023Z,26.10
2023-05-09T13:29:16.953Z,26.46
2023-05-09T13:31:45.775Z,26.30
2023-05-09T13:34:21.577Z,26.15
2023-05-09T13:36:50.539Z,26.51
2023-05-09T13:39:19.860Z,26.45
2023-05-09T13:41:50.728Z,26.30
2023-05-09T13:44:19.690Z,26.40
2023-05-09T13:46:48.693Z,26.55
2023-05-09T13:49:19.148Z,26.48
2023-05-09T13:51:48.121Z,26.50
2023-05-09T13:54:19.193Z,26.31
2023-05-09T13:56:48.300Z,26.41
2023-05-09T13:59:24.323Z,26.60
2023-05-09T14:01:56.910Z,26.73
2023-05-09T14:04:26.776Z,26.83
2023-05-09T14:06:56.224Z,26.73
2023-05-09T14:09:25.761Z,26.84
2023-05-09T14:11:56.916Z,27.14
2023-05-09T14:14:26.068Z,26.76
2023-05-09T14:16:55.169Z,27.12
2023-05-09T14:19:26.502Z,26.99
2023-05-09T14:21:55.914Z,26.79
2023-05-09T14:24:25.314Z,26.81
2023-05-09T14:26:54.230Z,26.57
2023-05-09T14:29:23.529Z,26.68
2023-05-09T14:31:52.757Z,26.96
2023-05-09T14:34:24.758Z,26.76
2023-05-09T14:36:53.651Z,26.65
2023-05-09T14:39:22.895Z,27.19
2023-05-09T14:41:52.688Z,26.93
2023-05-09T14:44:24.741Z,26.66
2023-05-09T14:46:53.547Z,26.82
2023-05-09T14:49:22.517Z,26.83
2023-05-09T14:51:51.544Z,26.85
2023-05-09T14:54:20.315Z,26.88
2023-05-09T14:56:49.325Z,27.06
2023-05-09T14:59:18.516Z,27.21
2023-05-09T15:01:47.394Z,27.21
2023-05-09T15:04:19.033Z,27.31
2023-05-09T15:06:48.031Z,27.31
2023-05-09T15:09:18.491Z,27.54
2023-05-09T15:11:49.032Z,27.32
2023-05-09T15:14:18.547Z,27.75
2023-05-09T15:16:47.855Z,27.85
2023-05-09T15:19:16.973Z,27.36
2023-05-09T15:21:46.138Z,27.14
2023-05-09T15:24:15.406Z,27.45
2023-05-09T15:26:44.447Z,27.77
2023-05-09T15:29:13.418Z,27.43
2023-05-09T15:31:43.814Z,27.52
2023-05-09T15:34:12.798Z,27.58
2023-05-09T15:36:41.608Z,27.45
2023-05-09T15:39:10.807Z,27.43
2023-05-09T15:41:40.710Z,27.45
2023-05-09T15:44:09.906Z,27.62
2023-05-09T15:46:41.775Z,27.77
2023-05-09T15:49:10.869Z,27.68
2023-05-09T15:51:39.648Z,28.04
2023-05-09T15:54:08.608Z,28.40
2023-05-09T15:56:38.982Z,27.82
2023-05-09T15:59:09.327Z,27.87
2023-05-09T16:01:39.164Z,28.04
2023-05-09T16:04:10.265Z,27.97
2023-05-09T16:06:39.917Z,28.47
2023-05-09T16:09:09.039Z,28.31
2023-05-09T16:11:37.956Z,28.25
2023-05-09T16:14:08.768Z,28.30
2023-05-09T16:16:38.299Z,28.64
2023-05-09T16:19:09.868Z,28.64
2023-05-09T16:21:39.239Z,28.48
2023-05-09T16:24:10.622Z,28.77
2023-05-09T16:26:40.130Z,28.57
2023-05-09T16:29:10.695Z,28.71
2023-05-09T16:31:44.412Z,29.01
2023-05-09T16:34:12.588Z,28.80
2023-05-09T16:36:43.595Z,28.72
2023-05-09T16:39:15.585Z,28.73
2023-05-09T16:41:44.525Z,28.84
2023-05-09T16:44:14.869Z,29.46
2023-05-09T16:46:46.942Z,29.13
2023-05-09T16:49:15.969Z,28.99
2023-05-09T16:51:45.119Z,29.21
2023-05-09T16:54:13.977Z,29.51
2023-05-09T16:56:45.176Z,29.45
2023-05-09T16:59:14.464Z,29.03
2023-05-09T17:01:47.269Z,29.54
2023-05-09T17:04:19.110Z,29.63
2023-05-09T17:06:49.585Z,29.28
2023-05-09T17:09:18.828Z,29.33
2023-05-09T17:11:48.356Z,28.89
2023-05-09T17:14:17.356Z,29.14
2023-05-09T17:16:46.453Z,29.40
2023-05-09T17:19:16.464Z,29.76
2023-05-09T17:21:45.528Z,29.45
2023-05-09T17:24:15.324Z,29.18
2023-05-09T17:26:44.158Z,29.22
2023-05-09T17:29:13.233Z,29.39
2023-05-09T17:31:44.703Z,29.50
2023-05-09T17:34:13.978Z,29.66
2023-05-09T17:36:42.905Z,30.16
2023-05-09T17:39:11.880Z,30.03
2023-05-09T17:41:41.249Z,30.73
2023-05-09T17:44:10.792Z,30.84
2023-05-09T17:46:45.236Z,30.84
2023-05-09T17:49:16.169Z,30.50
2023-05-09T17:51:48.875Z,31.09
2023-05-09T17:54:18.775Z,30.46
2023-05-09T17:56:50.470Z,30.80
2023-05-09T17:59:19.386Z,30.85
2023-05-09T18:01:48.342Z,31.74
2023-05-09T18:04:17.118Z,30.95
2023-05-09T18:06:46.881Z,31.46
2023-05-09T18:09:15.684Z,31.25
2023-05-09T18:11:45.499Z,31.89
2023-05-09T18:14:14.630Z,32.35
2023-05-09T18:16:44.545Z,31.79
2023-05-09T18:19:13.411Z,32.94
2023-05-09T18:21:42.216Z,32.91
2023-05-09T18:24:10.991Z,33.52
2023-05-09T18:26:42.389Z,33.26
2023-05-09T18:29:11.772Z,33.79
2023-05-09T18:31:41.959Z,33.69
2023-05-09T18:34:11.190Z,33.61
2023-05-09T18:36:40.238Z,34.14
2023-05-09T18:39:11.200Z,33.89
2023-05-09T18:41:40.535Z,34.20
2023-05-09T18:44:12.068Z,34.14
2023-05-09T18:46:44.276Z,34.70
2023-05-09T18:49:13.721Z,34.41
2023-05-09T18:51:42.741Z,34.77
2023-05-09T18:54:13.470Z,34.88
2023-05-09T18:56:43.091Z,35.34
2023-05-09T18:59:13.299Z,35.54
2023-05-09T19:01:45.784Z,35.02
2023-05-09T19:04:16.712Z,35.80
2023-05-09T19:06:45.748Z,35.50
2023-05-09T19:09:14.562Z,35.72
2023-05-09T19:11:43.566Z,35.94
2023-05-09T19:14:21.948Z,36.10
2023-05-09T19:16:50.948Z,36.46
2023-05-09T19:19:20.005Z,36.30
2023-05-09T19:21:56.311Z,36.58
2023-05-09T19:24:32.459Z,36.28
2023-05-09T19:27:02.168Z,36.83
2023-05-09T19:29:31.105Z,36.71
2023-05-09T19:32:00.783Z,36.57
2023-05-09T19:34:29.866Z,36.52
2023-05-09T19:36:58.703Z,36.95
2023-05-09T19:39:29.227Z,37.43
2023-05-09T19:42:00.306Z,36.82
2023-05-09T19:44:30.160Z,37.08
2023-05-09T19:47:00.496Z,37.47
2023-05-09T19:49:30.632Z,37.59
2023-05-09T19:51:59.611Z,37.93
2023-05-09T19:54:28.482Z,37.88
2023-05-09T19:56:57.410Z,37.75
2023-05-09T19:59:27.132Z,38.28
2023-05-09T20:01:56.495Z,38.29
2023-05-09T20:04:26.297Z,38.44
2023-05-09T20:06:55.244Z,38.67
2023-05-09T20:09:31.711Z,38.53
2023-05-09T20:12:03.226Z,38.82
2023-05-09T20:14:32.177Z,39.05
2023-05-09T20:17:02.013Z,38.80
2023-05-09T20:19:35.361Z,39.16
2023-05-09T20:22:04.207Z,39.38
2023-05-09T20:24:34.031Z,39.45
2023-05-09T20:27:03.005Z,39.32
2023-05-09T20:29:32.511Z,39.39
2023-05-09T20:32:02.248Z,40.04
2023-05-09T20:34:31.630Z,39.53
2023-05-09T20:37:03.695Z,40.10
2023-05-09T20:39:32.737Z,40.04
2023-05-09T20:42:05.936Z,40.00
2023-05-09T20:44:36.981Z,40.37
2023-05-09T20:47:06.680Z,40.32
2023-05-09T20:49:38.234Z,40.57
2023-05-09T20:52:07.301Z,40.52
2023-05-09T20:54:36.634Z,40.75
2023-05-09T20:57:05.480Z,40.83
2023-05-09T20:59:34.956Z,40.97
2023-05-09T21:02:03.978Z,40.90
2023-05-09T21:04:32.921Z,41.37
2023-05-09T21:07:06.454Z,41.46
2023-05-09T21:09:35.981Z,41.59
2023-05-09T21:12:05.342Z,41.57
2023-05-09T21:14:35.194Z,41.60
2023-05-09T21:17:04.226Z,41.77
2023-05-09T21:19:34.675Z,41.58
2023-05-09T21:22:03.600Z,41.80
2023-05-09T21:24:37.115Z,41.87
2023-05-09T21:27:06.211Z,42.21
2023-05-09T21:29:38.473Z,41.87
2023-05-09T21:32:08.090Z,41.95
2023-05-09T21:34:37.181Z,41.93
2023-05-09T21:37:06.161Z,42.74
2023-05-09T21:39:36.709Z,42.33
2023-05-09T21:42:05.714Z,42.71
2023-05-09T21:44:34.995Z,42.78
2023-05-09T21:47:04.176Z,42.81
2023-05-09T21:49:35.014Z,42.97
2023-05-09T21:52:05.762Z,43.28
2023-05-09T21:54:35.180Z,43.08
2023-05-09T21:57:04.259Z,42.78
2023-05-09T21:59:34.965Z,43.07
2023-05-09T22:02:03.935Z,43.64
2023-05-09T22:04:34.104Z,43.18
2023-05-09T22:07:05.212Z,43.26
2023-05-09T22:09:36.339Z,43.21
2023-05-09T22:12:06.110Z,43.28
2023-05-09T22:14:45.374Z,43.78
2023-05-09T22:17:22.226Z,43.43
2023-05-09T22:19:52.538Z,43.92
2023-05-09T22:22:21.516Z,43.76
2023-05-09T22:24:50.453Z,43.92
2023-05-09T22:27:19.375Z,43.90
2023-05-09T22:29:48.212Z,43.84
2023-05-09T22:32:17.753Z,44.11
2023-05-09T22:34:48.064Z,44.21
2023-05-09T22:37:17.340Z,44.42
2023-05-09T22:39:47.758Z,44.27
2023-05-09T22:42:16.807Z,44.55
2023-05-09T22:44:46.676Z,44.39
2023-05-09T22:47:15.847Z,45.05
2023-05-09T22:49:45.839Z,45.19
2023-05-09T22:52:15.268Z,45.20
2023-05-09T22:54:45.260Z,45.18
2023-05-09T22:57:17.309Z,45.44
2023-05-09T22:59:46.751Z,45.14
2023-05-09T23:02:16.708Z,45.22
2023-05-09T23:04:45.673Z,45.41
2023-05-09T23:07:15.306Z,45.53
2023-05-09T23:09:45.931Z,45.88
2023-05-09T23:12:15.184Z,45.32
2023-05-09T23:14:44.003Z,45.46
2023-05-09T23:17:12.892Z,45.55
2023-05-09T23:19:41.972Z,46.16
2023-05-09T23:22:10.903Z,46.17
2023-05-09T23:24:39.622Z,46.47
2023-05-09T23:27:09.035Z,46.66
2023-05-09T23:29:37.845Z,45.97
2023-05-09T23:32:06.790Z,46.07
2023-05-09T23:34:36.209Z,46.33
2023-05-09T23:37:11.954Z,46.19
2023-05-09T23:39:42.659Z,46.88
2023-05-09T23:42:11.887Z,47.12
2023-05-09T23:44:40.772Z,47.07
2023-05-09T23:47:10.381Z,46.69
2023-05-09T23:49:39.810Z,47.14
2023-05-09T23:52:09.726Z,47.50
2023-05-09T23:54:39.435Z,47.12
2023-05-09T23:57:08.413Z,47.48
2023-05-09T23:59:37.555Z,46.97
